Koyukuk, AK (99754)

21:39:AKDT den 04. september 2015 (GMT -0800)
Pitka | | Change Station
CLOSE
Current Station
Flyplass
Location: Galena,
Høyde over havet: 151 ft
Nearby Weather Stations

H.o.h 151 ft 64.74 °N, 156.94 °W | Updated 5 minutes ago

Clear
Klart
48 °F
Feels Like 48 °F
N
0
Vind Variabel Vind from Nord

I dag
High -- | Low -- °F
--% Chance of Precip.
I går
High -- | Low -- °F
Precip. -- tommer
7:19 AM 9:37 PM
Trekvart minkende, 52% visible
Lufttrykk 29.83 tommer
Sikt 1.8 eng. mil
Skyet Klart
Duggpunkt 45 °F
Fuktighet 87%
Regn 0.00 tommer
Snødybde Not available.
UV 0 av 12
Pollen Not available.
Luftkvalitet Not available.
Flu Activity Not available.
SPECI PAGA 050534Z AUTO 00000KT 1 3/4SM BR CLR 09/07 A2983 RMK AO2 VIS 3/4V5 PNO $
Lufttrykk 29.83 tommer
Sikt 1.8 eng. mil
Skyet Klart
Duggpunkt 45 °F
Fuktighet 87%
Regn 0.00 tommer
Snødybde Not available.
UV 0 av 12
Pollen Not available.
Luftkvalitet Not available.
Flu Activity Not available.
SPECI PAGA 050534Z AUTO 00000KT 1 3/4SM BR CLR 09/07 A2983 RMK AO2 VIS 3/4V5 PNO $

10-Day Weather Forecast

×

Almanac

Astronomi

Sep. 04, 2015 Oppgang Nedgang
Virkelig tid
Tussmørke
Nautisk skumring
Astronomisk skumring
Månen
Lengde av synlig lys
Dagens lengde
Tomorrow will be .
, % of the Moon is Illuminated

Dagens maks og min

State Highs State Lows

Community

WunderPhotos

Upload Photos

1,852,426 photos uploaded!

WunderBlogs® & News

Nearby

Luftkvalitet

  Luftkvalitet AQ Indeks Forurensing
Not available.

Snødybde

Stasjon Depth Høyde over havet

Earthquake Activity

By Distance Mag. Time & Date
Minimum magnitude displayed is 2.5.

Coastal Water Temperatures

Sted Temperatur

Stations

Nearby Weather Stations

Stasjonens lokasjon Temp. Nedkjølingseffekt Duggpunkt Fuktighet Vind Precip. H.o.h Oppdatert Type